This is the latest recevied weather packets stored in our database for station/object TA2EE-10. If no packets are shown the sender has not sent any weather packets the latest 10 day(s).
| Time | Temp. | Humidity | Pressure | Rain* | Wind** | Luminosity | Snow |
|---|---|---|---|---|---|---|---|
| 1778084256 | 26.11° C | 26% | 915 hPa | - | - | 0 W/m² | - |
| 1778082134 | 25.56° C | 26% | 914 hPa | - | - | 0 W/m² | - |
| 1778080012 | 26.67° C | 26% | 914 hPa | - | - | 0 W/m² | - |
| 1778077890 | 27.22° C | 26% | 914 hPa | - | - | 0 W/m² | - |
| 1778075768 | 26.11° C | 27% | 914 hPa | - | - | 0 W/m² | - |
| 1778073646 | 26.67° C | 28% | 914 hPa | - | - | 0 W/m² | - |
| 1778071523 | 27.78° C | 25% | 915 hPa | - | - | 0 W/m² | - |
| 1778069401 | 26.67° C | 27% | 915 hPa | - | - | 0 W/m² | - |
| 1778067279 | 25.56° C | 28% | 915 hPa | - | - | 0 W/m² | - |
| 1778065157 | 25.56° C | 28% | 915 hPa | - | - | 0 W/m² | - |
| 1778063035 | 27.78° C | 26% | 915 hPa | - | - | 0 W/m² | - |
| 1778060913 | 28.33° C | 25% | 915 hPa | - | - | 0 W/m² | - |
| 1778058791 | 26.11° C | 28% | 915 hPa | - | - | 0 W/m² | - |
| 1778056669 | 27.22° C | 26% | 915 hPa | - | - | 0 W/m² | - |
| 1778054546 | 27.22° C | 27% | 915 hPa | - | - | 0 W/m² | - |
| 1778052424 | 27.22° C | 27% | 915 hPa | - | - | 0 W/m² | - |
| 1778050302 | 26.11° C | 29% | 915 hPa | - | - | 0 W/m² | - |
| 1778048180 | 22.22° C | 35% | 915 hPa | - | - | 0 W/m² | - |
| 1778046057 | 16.67° C | 45% | 915 hPa | - | - | 0 W/m² | - |
| 1778045907 | 16.67° C | 46% | 915 hPa | - | - | 0 W/m² | - |
| 1778043785 | 15.56° C | 48% | 915 hPa | - | - | 0 W/m² | - |
| 1778041663 | 15.56° C | 47% | 914 hPa | - | - | 0 W/m² | - |
| 1778039540 | 16.11° C | 47% | 914 hPa | - | - | 0 W/m² | - |
| 1778037419 | 16.11° C | 48% | 914 hPa | - | - | 0 W/m² | - |
| 1778035296 | 16.11° C | 48% | 913 hPa | - | - | 0 W/m² | - |
* Rain since midnight (hover to see other rain measurements)
** Current wind speed in m/s (hover to see current wind gust speed)